Super Express — WAB6372 — position and weather

sailwx.info

Track history (hours):
 
Tides and Currents Weather Stations Pressure Air Temp Water Temp Dewpoint Dewpoint Depression Visibility Wind Speed Wind Dir Waves Ship Positions

Super Express

Owner: CATALINA CHANNEL EXPRESS, Long Beach, CA. More information available from US FCC via Universal Licensing System and Coast Guard Vessel Documentation Center.

Last reported at 2017-Nov-18 03:08 UTC. Time now 2017-Nov-18 15:38 UTC.
Position N 33°22' W 118°19'.

Length 45 m; draft 1 m.

Type: High speed craft. MMSI: 366943940.

Date/timePositionNaut miles runAvg speedWind from/ knotsBaromVisibWave heightAir tempDewpointWater temp
2017-Nov-18 03:08N 33°22' W 118°19'1 2.3
2017-Nov-18 02:44N 33°21' W 118°19'20 3.1
2017-Nov-17 20:21N 33°40' W 118°15'1910.9
2017-Nov-17 18:39N 33°22' W 118°20'18 0.4
2017-Nov-16 02:21N 33°40' W 118°15'924.7
2017-Nov-16 02:00N 33°31' W 118°17'1010.4
2017-Nov-16 01:03N 33°22' W 118°19'225.8
2017-Nov-16 00:58N 33°24' W 118°21'7 8.9
2017-Nov-16 00:07N 33°27' W 118°29'325.5
2017-Nov-16 00:00N 33°29' W 118°27'1020.3
2017-Nov-15 23:30N 33°37' W 118°19'815.5
2017-Nov-15 22:58N 33°45' W 118°16'0 0.0
2017-Nov-15 21:57N 33°45' W 118°16'0 0.0
2017-Nov-15 21:28N 33°45' W 118°16'0 0.1
2017-Nov-15 21:00N 33°45' W 118°16'1 2.2
2017-Nov-15 20:30N 33°44' W 118°16'919.1
2017-Nov-15 20:00N 33°36' W 118°22'10 9.3
2017-Nov-15 18:55N 33°27' W 118°28'1013.1
2017-Nov-15 18:11N 33°21' W 118°19'422.4
2017-Nov-15 18:00N 33°25' W 118°19'1325.9
2017-Nov-15 17:30N 33°37' W 118°16'713.9
2017-Nov-15 16:58N 33°45' W 118°16'0 0.0
2017-Nov-15 16:10N 33°45' W 118°16'0 0.0
2017-Nov-15 15:53N 33°45' W 118°16'0 0.0
2017-Nov-15 15:30N 33°45' W 118°16'0 0.0
2017-Nov-15 14:34N 33°45' W 118°16'0 0.0
2017-Nov-15 14:23N 33°45' W 118°16'0 0.0
2017-Nov-15 13:59N 33°45' W 118°16'0 0.0
2017-Nov-15 13:30N 33°45' W 118°16'4 0.1
2017-Nov-14 02:25N 33°41' W 118°15'1024.5
2017-Nov-14 02:00N 33°31' W 118°17'1114.2
2017-Nov-14 01:15N 33°21' W 118°19'2 6.6
2017-Nov-14 01:00N 33°22' W 118°20'911.0
2017-Nov-14 00:10N 33°27' W 118°30'319.2
2017-Nov-14 00:00N 33°27' W 118°26'1222.4
2017-Nov-13 23:28N 33°37' W 118°18'715.0
2017-Nov-13 22:59N 33°45' W 118°17'0 0.8
2017-Nov-13 22:30N 33°45' W 118°16'0 0.0
2017-Nov-13 22:00N 33°45' W 118°16'13 0.6
2017-Nov-13 02:00N 33°32' W 118°16'11 9.0
2017-Nov-13 00:46N 33°21' W 118°19'520.7
2017-Nov-13 00:30N 33°27' W 118°18'1622.6
2017-Nov-12 23:47N 33°43' W 118°16'2 7.2
2017-Nov-12 23:29N 33°45' W 118°16'0 0.0
2017-Nov-12 22:50N 33°45' W 118°16'2 5.0
2017-Nov-12 22:30N 33°43' W 118°16'1121.5
2017-Nov-12 21:59N 33°34' W 118°23'9 8.5
2017-Nov-12 20:59N 33°27' W 118°29'10 8.7
2017-Nov-12 19:51N 33°22' W 118°19'1026.0
2017-Nov-12 19:29N 33°32' W 118°17'9 0.5
2017-Nov-12 02:27N 33°40' W 118°14'1824.8
2017-Nov-12 01:42N 33°22' W 118°19'1 1.3
2017-Nov-12 01:04N 33°21' W 118°19'14 9.5
2017-Nov-11 23:36N 33°35' W 118°21'325.7
2017-Nov-11 23:30N 33°37' W 118°20'5 1.7
2017-Nov-11 20:26N 33°41' W 118°16'1425.7
2017-Nov-11 19:54N 33°31' W 118°26'8 7.1
2017-Nov-11 18:43N 33°23' W 118°21'18 0.9
2017-Nov-10 23:03N 33°41' W 118°16'1 0.2
2017-Nov-10 19:28N 33°41' W 118°15'2025.8
2017-Nov-10 18:42N 33°21' W 118°19'20 0.9
2017-Nov-09 21:19N 33°41' W 118°16'1 0.1
2017-Nov-09 02:21N 33°41' W 118°15'1225.2
2017-Nov-09 01:52N 33°29' W 118°17'8 8.7
2017-Nov-09 01:00N 33°22' W 118°19'20 4.3
2017-Nov-08 20:22N 33°41' W 118°16'925.9
2017-Nov-08 20:01N 33°34' W 118°23'914.5
2017-Nov-08 19:22N 33°27' W 118°30'1013.4
2017-Nov-08 18:37N 33°22' W 118°19'  
Track history (hours):
 
Tides and Currents Weather Stations Pressure Air Temp Water Temp Dewpoint Dewpoint Depression Visibility Wind Speed Wind Dir Waves Ship Positions

Super Express

Owner: CATALINA CHANNEL EXPRESS, Long Beach, CA. More information available from US FCC via Universal Licensing System and Coast Guard Vessel Documentation Center.

Last reported at 2017-Nov-18 03:08 UTC. Time now 2017-Nov-18 15:38 UTC.
Position N 33°22' W 118°19'.

Length 45 m; draft 1 m.

Type: High speed craft. MMSI: 366943940.

Date/timePositionNaut miles runAvg speedWind from/ knotsBaromVisibWave heightAir tempDewpointWater temp
2017-Nov-18 03:08N 33°22' W 118°19'1 2.3
2017-Nov-18 02:44N 33°21' W 118°19'20 3.1
2017-Nov-17 20:21N 33°40' W 118°15'1910.9
2017-Nov-17 18:39N 33°22' W 118°20'18 0.4
2017-Nov-16 02:21N 33°40' W 118°15'924.7
2017-Nov-16 02:00N 33°31' W 118°17'1010.4
2017-Nov-16 01:03N 33°22' W 118°19'225.8
2017-Nov-16 00:58N 33°24' W 118°21'7 8.9
2017-Nov-16 00:07N 33°27' W 118°29'325.5
2017-Nov-16 00:00N 33°29' W 118°27'1020.3
2017-Nov-15 23:30N 33°37' W 118°19'815.5
2017-Nov-15 22:58N 33°45' W 118°16'0 0.0
2017-Nov-15 21:57N 33°45' W 118°16'0 0.0
2017-Nov-15 21:28N 33°45' W 118°16'0 0.1
2017-Nov-15 21:00N 33°45' W 118°16'1 2.2
2017-Nov-15 20:30N 33°44' W 118°16'919.1
2017-Nov-15 20:00N 33°36' W 118°22'10 9.3
2017-Nov-15 18:55N 33°27' W 118°28'1013.1
2017-Nov-15 18:11N 33°21' W 118°19'422.4
2017-Nov-15 18:00N 33°25' W 118°19'1325.9
2017-Nov-15 17:30N 33°37' W 118°16'713.9
2017-Nov-15 16:58N 33°45' W 118°16'0 0.0
2017-Nov-15 16:10N 33°45' W 118°16'0 0.0
2017-Nov-15 15:53N 33°45' W 118°16'0 0.0
2017-Nov-15 15:30N 33°45' W 118°16'0 0.0
2017-Nov-15 14:34N 33°45' W 118°16'0 0.0
2017-Nov-15 14:23N 33°45' W 118°16'0 0.0
2017-Nov-15 13:59N 33°45' W 118°16'0 0.0
2017-Nov-15 13:30N 33°45' W 118°16'4 0.1
2017-Nov-14 02:25N 33°41' W 118°15'1024.5
2017-Nov-14 02:00N 33°31' W 118°17'1114.2
2017-Nov-14 01:15N 33°21' W 118°19'2 6.6
2017-Nov-14 01:00N 33°22' W 118°20'911.0
2017-Nov-14 00:10N 33°27' W 118°30'319.2
2017-Nov-14 00:00N 33°27' W 118°26'1222.4
2017-Nov-13 23:28N 33°37' W 118°18'715.0
2017-Nov-13 22:59N 33°45' W 118°17'0 0.8
2017-Nov-13 22:30N 33°45' W 118°16'0 0.0
2017-Nov-13 22:00N 33°45' W 118°16'13 0.6
2017-Nov-13 02:00N 33°32' W 118°16'11 9.0
2017-Nov-13 00:46N 33°21' W 118°19'520.7
2017-Nov-13 00:30N 33°27' W 118°18'1622.6
2017-Nov-12 23:47N 33°43' W 118°16'2 7.2
2017-Nov-12 23:29N 33°45' W 118°16'0 0.0
2017-Nov-12 22:50N 33°45' W 118°16'2 5.0
2017-Nov-12 22:30N 33°43' W 118°16'1121.5
2017-Nov-12 21:59N 33°34' W 118°23'9 8.5
2017-Nov-12 20:59N 33°27' W 118°29'10 8.7
2017-Nov-12 19:51N 33°22' W 118°19'1026.0
2017-Nov-12 19:29N 33°32' W 118°17'9 0.5
2017-Nov-12 02:27N 33°40' W 118°14'1824.8
2017-Nov-12 01:42N 33°22' W 118°19'1 1.3
2017-Nov-12 01:04N 33°21' W 118°19'14 9.5
2017-Nov-11 23:36N 33°35' W 118°21'325.7
2017-Nov-11 23:30N 33°37' W 118°20'5 1.7
2017-Nov-11 20:26N 33°41' W 118°16'1425.7
2017-Nov-11 19:54N 33°31' W 118°26'8 7.1
2017-Nov-11 18:43N 33°23' W 118°21'18 0.9
2017-Nov-10 23:03N 33°41' W 118°16'1 0.2
2017-Nov-10 19:28N 33°41' W 118°15'2025.8
2017-Nov-10 18:42N 33°21' W 118°19'20 0.9
2017-Nov-09 21:19N 33°41' W 118°16'1 0.1
2017-Nov-09 02:21N 33°41' W 118°15'1225.2
2017-Nov-09 01:52N 33°29' W 118°17'8 8.7
2017-Nov-09 01:00N 33°22' W 118°19'20 4.3
2017-Nov-08 20:22N 33°41' W 118°16'925.9
2017-Nov-08 20:01N 33°34' W 118°23'914.5
2017-Nov-08 19:22N 33°27' W 118°30'1013.4
2017-Nov-08 18:37N 33°22' W 118°19'  

Dump ship's entire track history